Terminal Aerodrome Forecast
Issued by NWS

Home | Current Version | Previous Version | Graphics & Text | Print | Product List | Glossary On
Versions: 1 2 3 4 5 6 7 8 9 10 11 12 13 14 15 16 17 18 19 20 21
000
FTUS42 KMHX 020000 AAA
TAFPGV
TAF AMD
KPGV 020008Z 0200/0224 00000KT 4SM -RA VCSH BKN005 OVC015
     FM020300 10003KT P6SM VCSH SCT025 BKN035
     FM020700 00000KT 2SM BR VCSH BKN007 OVC025
     FM021300 13005KT 5SM -SHRA SCT007 OVC025
     FM021800 03004KT 6SM -SHRA OVC030
      AMD LTD TO CLD VIS AND WIND=

USA.gov is the U.S. government's official web portal to all federal, state and local government web resources and services.